logo
App data

East India Company

In East India Company, players will enjoy building the World's most powerful trading empire & engaging in vigorous battles in both single player & multiplayer modes, all within a breathtaking cinematic game environment.
Store | Hub | SteamDB | Site
Developer: Nitro Games Publisher: Nitro Games
Genre: Strategy
Languages: English, French, German
Tags: Strategy (39), Economy (8), Historical (7), Trading (5)
Category: Single-player, Multi-player
Release date: Jul 31, 2009
Price: $9.99
Score rank: 10% Userscore: 48% Old userscore: 49% Metascore: 67%
Owners: 20,000 .. 50,000
Followers: 368
Peak concurrent players yesterday: 7
Playtime total: 02:09 (average) 03:46 (median)

Steam Spy is still in beta, so expect major bugs.

Owners data:

Access restricted.

This feature is only available to users with special access rights. Sorry.

If you want to proceed, you need to register or log in first and then back Steam Spy on Patreon. Look for Indie or Pro pledge.

Don't forget to use the same email as on Steam Spy!

Audience in 2 weeks:

Access restricted.

This feature is only available to users with special access rights. Sorry.

If you want to proceed, you need to register or log in first and then back Steam Spy on Patreon. Look for Indie or Pro pledge.

Don't forget to use the same email as on Steam Spy!

Peak daily concurrent players:

CCU data courtesy of SteamDB. Used with permission.

Hourly concurrent players:

Daily Twitch stats:

Hourly Twitch stats:

YouTube:

The views data is based on top 50 videos uploaded last week. Actual number of views might be more than the number shown.

The displayed number of videos uploaded yesterday is limited to 50, so if there were more videos uploaded, the number will still show 50.

If the game has commonly used word as its name (like "FEAR" or "Volume") its number of Youtube views might be wrong.

Games similar to this one:

# Game Release date
Price
Score rank
(Userscore / Metascore)
Owners
Players
Playtime (Median)
1 Lazerbait Oct 14, 2016 Free97% (97%)20,000 .. 50,0000%00:00 (00:00)
2 Quar: Battle for Gate 18 Apr 4, 2016 $12.9987% (93%)20,000 .. 50,0000%00:00 (00:00)
3 Sacrifice Nov 1, 2000 $9.9979% (91%/89%)20,000 .. 50,0000%00:00 (00:00)
4 UFHO2 Apr 1, 2014 FreeN/A (N/A)0 .. 20,0000%00:00 (00:00)
5 Swords and Soldiers HD Dec 2, 2010 $9.9979% (91%)200,000 .. 500,0000%00:00 (00:00)
6 Khet 2.0 Oct 1, 2014 $9.9979% (91%)50,000 .. 100,0000%00:00 (00:00)
7 Company of Heroes: Opposing Fronts Sep 27, 2007 $19.9979% (91%/87%)2,000,000 .. 5,000,0000%00:00 (00:00)
8 X-COM: Apocalypse Jul 15, 1997 $4.9976% (90%)200,000 .. 500,0000%00:00 (00:00)
9 ThreadSpace: Hyperbol Jul 12, 2007 $9.99N/A (N/A)0 .. 20,0000%00:00 (00:00)
10 Silent Storm Gold Edition Sep 9, 2004 $9.9976% (90%/83%)100,000 .. 200,0002.53%08:07 (05:24)
11 Kohan II: Kings of War Sep 21, 2004 $9.9976% (90%/81%)0 .. 20,0000%00:00 (00:00)
12 MoonBase Commander Aug 13, 2002 $5.9973% (89%/77%)20,000 .. 50,0000%00:00 (00:00)
13 Warhammer 40,000: Dawn of War – Winter Assault Jan 1, 2006 $12.9973% (89%)100,000 .. 200,0000.95%00:21 (00:20)
14 Archon Classic Nov 2, 2010 $9.9973% (89%)20,000 .. 50,0000%00:00 (00:00)
15 Codename: Panzers, Phase Two Jul 21, 2005 $14.9973% (89%/80%)0 .. 20,0000%00:00 (00:00)
16 Pang Adventures Apr 18, 2016 $9.9973% (89%)20,000 .. 50,0000%00:00 (00:00)
17 Sang-Froid - Tales of Werewolves Apr 5, 2013 Free68% (87%/79%)50,000 .. 100,0000.9%01:58 (01:57)
18 Joint Task Force Sep 12, 2006 $9.9968% (87%/68%)0 .. 20,0000%00:00 (00:00)
19 Supreme Commander Feb 20, 2007 $14.9968% (87%/86%)200,000 .. 500,0000%00:00 (00:00)
20 Civilization IV: Warlords Jul 24, 2006 $4.9968% (87%/84%)1,000,000 .. 2,000,0000.24%00:02 (00:00)
21 Rush for Berlin Gold Oct 29, 2009 $4.9965% (86%/76%)20,000 .. 50,0002.5%00:02 (00:00)
22 Out of Ammo Sep 14, 2016 $14.9965% (86%)20,000 .. 50,00010%00:25 (00:08)
23 Magnifico Dec 2, 2014 $4.9962% (85%)0 .. 20,0000%00:00 (00:00)
24 Battle Academy Aug 4, 2010 $14.9962% (85%)20,000 .. 50,0000%00:00 (00:00)
25 Microgons Mar 27, 2017 FreeN/A (N/A)0 .. 20,0000%00:00 (00:00)
26 Ground Control II: Operation Exodus Jun 18, 2004 $4.9960% (84%/80%)20,000 .. 50,0000%00:00 (00:00)
27 Cossacks: Art of War Mar 31, 2002 $4.9960% (84%/74%)50,000 .. 100,0000%00:00 (00:00)
28 Eador: Genesis Aug 7, 2009 $5.9960% (84%)50,000 .. 100,0000%00:00 (00:00)
29 Rooks Keep Dec 5, 2014 $7.9960% (84%)0 .. 20,0001.45%04:33 (01:31)
30 Conflict Desert Storm Sep 13, 2002 $6.9960% (84%/56%)20,000 .. 50,0000%00:00 (00:00)
31 Cluck Yegger in Escape From The Planet of The Poultroid Nov 9, 2015 $2.99N/A (N/A)0 .. 20,0000%00:00 (00:00)
32 Disciples Sacred Lands Gold Oct 4, 1999 $7.9957% (83%)50,000 .. 100,0000%00:00 (00:00)
33 SHOGUN: Total War - Collection Jun 13, 2000 $9.9955% (82%)20,000 .. 50,0000%00:00 (00:00)
34 Men of War: Red Tide Nov 1, 2009 $4.9955% (82%/77%)200,000 .. 500,0000%00:00 (00:00)
35 Commandos: Beyond the Call of Duty Apr 7, 1999 $0.7455% (82%)200,000 .. 500,0000%00:00 (00:00)
36 Gunman Taco Truck Jan 28, 2017 $1.9955% (82%)0 .. 20,0000%00:00 (00:00)
37 Space Empires IV Deluxe Feb 7, 2006 $9.9955% (82%/79%)50,000 .. 100,0000%00:00 (00:00)
38 Seven Kingdoms 2 HD Feb 4, 2015 $9.9955% (82%)20,000 .. 50,0000%00:00 (00:00)
39 Age of Wonders Oct 2010 $5.9953% (81%)100,000 .. 200,0000%00:00 (00:00)
40 Dwarfs!? May 4, 2011 $9.9953% (81%)200,000 .. 500,0000.33%00:11 (00:03)
41 Tiny Troopers Aug 24, 2012 $4.9953% (81%/57%)100,000 .. 200,0000%00:00 (00:00)
42 Wyrmsun May 22, 2015 Free53% (81%)0 .. 20,0001.67%01:05 (00:21)
43 ROD: Revolt Of Defense Aug 12, 2016 $0.9950% (80%)20,000 .. 50,0000%00:00 (00:00)
44 Legends of Callasia Jun 10, 2016 $14.9950% (80%)20,000 .. 50,0000%00:00 (00:00)
45 Perimeter May 21, 2004 $3.9950% (80%/77%)20,000 .. 50,0000%00:00 (00:00)
46 Fantasy Wars Aug 6, 2010 $4.9950% (80%/67%)50,000 .. 100,0000%00:00 (00:00)
47 Conquest of Elysium 3 Oct 24, 2012 $4.9950% (80%)20,000 .. 50,0000%00:00 (00:00)
48 Dominions 3: The Awakening Sep 10, 2013 $19.9950% (80%/82%)0 .. 20,0000%00:00 (00:00)
49 Supreme Ruler 2020 Gold Jun 17, 2008 $9.9950% (80%/65%)50,000 .. 100,0000%00:00 (00:00)
50 Fate of the World Feb 28, 2011 $9.9950% (80%/70%)50,000 .. 100,0000%00:00 (00:00)
51 Disciples II: Rise of the Elves Jul 6, 2006 $6.9948% (79%/80%)100,000 .. 200,0000%00:00 (00:00)
52 Demolition Inc. Sep 19, 2011 $5.9948% (79%)50,000 .. 100,0000%00:00 (00:00)
53 Locoland Nov 22, 2003 $4.9948% (79%)0 .. 20,0000%00:00 (00:00)
54 Harvest: Massive Encounter Mar 5, 2008 $7.9946% (78%)20,000 .. 50,0000%00:00 (00:00)
55 Age of Wonders II: The Wizard's Throne Oct 2010 $9.9946% (78%/86%)50,000 .. 100,0000%00:00 (00:00)
56 Starscape Mar 27, 2003 $7.9946% (78%)20,000 .. 50,0000%00:00 (00:00)
57 Imperium Romanum Gold Edition Oct 30, 2008 $9.9946% (78%/63%)100,000 .. 200,0000%00:00 (00:00)
58 Honey Rose: Underdog Fighter Extraordinaire Sep 29, 2016 FreeN/A (N/A)20,000 .. 50,0000%00:00 (00:00)
59 Dangerous Waters Feb 7, 2006 $14.9946% (78%/82%)50,000 .. 100,0000%00:00 (00:00)
60 Reprisal Universe Sep 15, 2014 $6.9946% (78%)20,000 .. 50,0000%00:00 (00:00)
61 A Healer Only Lives Twice Jun 2, 2016 $4.9944% (77%)0 .. 20,000100%01:40 (01:40)
62 Patrician III Nov 18, 2010 $4.9944% (77%/75%)50,000 .. 100,0000%00:00 (00:00)
63 WARSHIFT Oct 12, 2016 $12.9943% (76%)20,000 .. 50,0000%00:00 (00:00)
64 Praetorians Mar 10, 2003 $4.9943% (76%/78%)50,000 .. 100,0000%00:00 (00:00)
65 ORB Nov 8, 2002 $4.9943% (76%)0 .. 20,0000%00:00 (00:00)
66 Heroes of Might & Magic V: Hammers of Fate Nov 14, 2006 $9.9943% (76%/66%)20,000 .. 50,0000%00:00 (00:00)
67 Cubemen Mar 16, 2012 $3.9943% (76%/74%)100,000 .. 200,0000.74%00:01 (00:00)
68 Perimeter: Emperor's Testament Aug 29, 2006 $3.99N/A (N/A/72%)20,000 .. 50,0000%00:00 (00:00)
69 Fritz for Fun 13 Aug 12, 2013 $19.99N/A (N/A)0 .. 20,0000%00:00 (00:00)
70 Vegas: Make It Big Dec 21, 2006 $4.9941% (75%)20,000 .. 50,0000%00:00 (00:00)
71 World War I Jun 17, 2005 $4.9941% (75%)20,000 .. 50,0000%00:00 (00:00)
72 Civil War II Sep 17, 2013 $39.9941% (75%)0 .. 20,0000%00:00 (00:00)
73 AirMech Command Mar 8, 2017 $19.9941% (75%)0 .. 20,0000%00:00 (00:00)
74 688(I) Hunter/Killer Jul 4, 1997 $9.9939% (74%)50,000 .. 100,0000%00:00 (00:00)
75 TableTop Soccer Apr 22, 2016 $0.9939% (74%)0 .. 20,0000%00:00 (00:00)
76 Cossacks: European Wars Apr 24, 2001 $4.9937% (73%/74%)50,000 .. 100,0000%00:00 (00:00)
77 Grand Ages: Rome Mar 20, 2009 $9.9937% (73%/72%)200,000 .. 500,0000%00:00 (00:00)
78 Children of Orc Dec 20, 2016 Free37% (73%)0 .. 20,0000%00:00 (00:00)
79 Battlestations: Midway Jan 30, 2007 $6.9937% (73%/76%)200,000 .. 500,0000%00:00 (00:00)
80 Wildlife Park 2 - Crazy Zoo Mar 30, 2007 $3.99N/A (N/A)0 .. 20,0000%00:00 (00:00)
81 Rome: Total War - Alexander Jun 26, 2006 $4.9934% (71%/79%)200,000 .. 500,0000%00:00 (00:00)
82 The Guild Gold Edition Nov 18, 2002 $9.9934% (71%/82%)50,000 .. 100,0000%00:00 (00:00)
83 UFO: Aftershock Oct 21, 2005 $3.9934% (71%)0 .. 20,0000%00:00 (00:00)
84 Darwinia Jul 14, 2005 $9.9934% (71%/84%)200,000 .. 500,0000%00:00 (00:00)
85 War in a Box: Paper Tanks Jul 4, 2014 $4.9934% (71%)20,000 .. 50,0000%00:00 (00:00)
86 Sub Command Oct 1, 2001 $9.99N/A (N/A/84%)20,000 .. 50,0000%00:00 (00:00)
87 Brigade E5: New Jagged Union Oct 17, 2006 $3.9931% (69%/41%)0 .. 20,0000%00:00 (00:00)
88 Alea Jacta Est Sep 27, 2012 $24.9931% (69%)0 .. 20,0009.09%00:08 (00:02)
89 American Conquest Feb 7, 2003 $4.9931% (69%/76%)50,000 .. 100,0000%00:00 (00:00)
90 The Nightmare Cooperative Jul 16, 2014 $4.9931% (69%)50,000 .. 100,0000%00:00 (00:00)
91 Void Destroyer Jan 20, 2015 $9.9929% (68%)50,000 .. 100,0000%00:00 (00:00)
92 Cthulhu Realms Jul 1, 2016 N/A29% (68%)50,000 .. 100,0001.23%00:06 (00:02)
93 Nomad Fleet Jul 14, 2015 $9.9929% (68%)0 .. 20,0006.25%00:30 (00:10)
94 Legions of Ashworld Jul 4, 2014 $4.99N/A (N/A)0 .. 20,0000%00:00 (00:00)
95 Europa Universalis: Rome - Gold Edition Nov 19, 2008 $9.9928% (67%/79%)50,000 .. 100,0002.17%00:43 (00:14)
96 Survivor Squad: Gauntlets Nov 16, 2015 $4.9928% (67%)20,000 .. 50,0000%00:00 (00:00)
97 American Conquest: Fight Back Sep 30, 2003 $4.9928% (67%/66%)50,000 .. 100,0000%00:00 (00:00)
98 Men of War: Condemned Heroes Apr 12, 2012 $7.9926% (66%/57%)50,000 .. 100,0001.2%00:48 (00:16)
99 Across the Rhine Jul 1, 1995 $6.99N/A (N/A)0 .. 20,0000%00:00 (00:00)
100 Full Spectrum Warrior: Ten Hammers Mar 27, 2006 $9.9926% (66%/70%)100,000 .. 200,0000%00:00 (00:00)
101 The Seven Years War (1756-1763) Oct 30, 2015 $19.9925% (65%)0 .. 20,0000%00:00 (00:00)
102 Marauder Sep 10, 2009 $9.9925% (65%)50,000 .. 100,0000%00:00 (00:00)
103 Hunters Of The Dead Sep 4, 2014 $4.9925% (65%)0 .. 20,0000%00:00 (00:00)
104 Planets Under Attack Sep 27, 2012 $9.9925% (65%)200,000 .. 500,0000.5%02:30 (03:45)
105 Rise: Battle Lines Nov 17, 2015 $1.9924% (64%)0 .. 20,0000%00:00 (00:00)
106 UFO: Afterlight Feb 8, 2007 $6.9923% (63%/71%)200,000 .. 500,0000%00:00 (00:00)
107 Port Royale 2 Apr 30, 2004 $0.9923% (63%/75%)50,000 .. 100,0000%00:00 (00:00)
108 Crusader Kings Complete Feb 14, 2012 $9.9923% (63%/73%)50,000 .. 100,0001.61%00:14 (00:04)
109 Maelstrom: The Battle for Earth Begins Feb 20, 2007 $4.9922% (62%/58%)20,000 .. 50,0000%00:00 (00:00)
110 Crown and Council Jan 27, 2017 Free22% (62%)50,000 .. 100,0000%00:00 (00:00)
111 Desperados: Wanted Dead or Alive Jul 23, 2001 $4.9922% (62%/78%)100,000 .. 200,0001.43%00:45 (00:15)
112 Quarantine Feb 9, 2017 $9.9920% (61%)0 .. 20,0000%00:00 (00:00)
113 To End All Wars Aug 29, 2014 $39.9920% (61%/71%)0 .. 20,0000%00:00 (00:00)
114 Hydrophobia: Prophecy May 9, 2011 $4.9920% (61%/64%)200,000 .. 500,0000%00:00 (00:00)
115 Legions of Steel Jul 16, 2015 $19.99N/A (N/A/64%)0 .. 20,0000%00:00 (00:00)
116 Robin Hood: The Legend of Sherwood Nov 1, 2002 $7.9920% (61%/80%)100,000 .. 200,0000%00:00 (00:00)
117 Haegemonia: The Solon Heritage May 1, 2014 $4.9920% (61%)0 .. 20,0000%00:00 (00:00)
118 Codename: Panzers - Cold War Mar 10, 2009 $14.9920% (61%)20,000 .. 50,0000%00:00 (00:00)
119 Sudden Strike 3 Dec 7, 2007 $5.99N/A (N/A)20,000 .. 50,0000%00:00 (00:00)
120 Blight of the Immortals Oct 25, 2016 FreeN/A (N/A)20,000 .. 50,0000%00:00 (00:00)
121 Steam 360 Video Player May 10, 2017 Free18% (59%)50,000 .. 100,0000%00:00 (00:00)
122 Crystal Rift Mar 30, 2016 $9.9917% (58%)0 .. 20,0000%00:00 (00:00)
123 Rush for Glory Jun 16, 2014 $14.9917% (58%)50,000 .. 100,0000%00:00 (00:00)
124 Achron Aug 29, 2011 $19.9917% (58%/54%)0 .. 20,0000%00:00 (00:00)
125 9th Company: Roots Of Terror Dec 3, 2009 $9.9917% (58%)20,000 .. 50,0000%00:00 (00:00)
126 Cossacks II: Battle for Europe Jun 19, 2006 $4.9916% (57%/69%)100,000 .. 200,0000%00:00 (00:00)
127 BC Kings Sep 15, 2008 $4.9915% (55%)20,000 .. 50,0000%00:00 (00:00)
128 Gratuitous Tank Battles May 17, 2012 $9.9915% (55%/69%)0 .. 20,0000%00:00 (00:00)
129 Earth 2140 Nov 15, 2013 $4.9914% (54%)200,000 .. 500,0001.37%04:39 (04:17)
130 Space Trader: Merchant Marine Oct 23, 2008 $4.9913% (53%)200,000 .. 500,0000%00:00 (00:00)
131 Neocolonialism Nov 25, 2014 $3.99N/A (N/A)0 .. 20,0000%00:00 (00:00)
132 Gods vs Humans Sep 5, 2013 $4.9913% (52%)20,000 .. 50,0000%00:00 (00:00)
133 Viking: Battle for Asgard Oct 17, 2012 $14.9913% (52%)500,000 .. 1,000,0000.11%03:56 (01:18)
134 X-COM: Enforcer Apr 19, 2001 $4.9913% (52%/65%)50,000 .. 100,0000%00:00 (00:00)
135 Crusaders: Thy Kingdom Come Oct 8, 2009 $9.99N/A (N/A)20,000 .. 50,0000%00:00 (00:00)
136 Red Faction II Apr 9, 2003 $9.9911% (50%/64%)200,000 .. 500,0000%00:00 (00:00)
137 Master of Orion 3 Feb 25, 2003 $9.99N/A (N/A/64%)100,000 .. 200,0000%00:00 (00:00)
138 X-COM: Interceptor Jun 15, 1998 $4.9911% (49%)50,000 .. 100,0000%00:00 (00:00)
139 Aggression: Europe Under Fire May 10, 2007 $9.9910% (48%)20,000 .. 50,0000%00:00 (00:00)
140 Evolution RTS Apr 4, 2014 Free10% (48%)100,000 .. 200,0000%00:00 (00:00)
141 Hero Generations Apr 10, 2015 $5.999% (47%)0 .. 20,0000%00:00 (00:00)
142 Hell Nov 13, 2014 $29.99N/A (N/A)0 .. 20,0000%00:00 (00:00)
143 Leviathan: Warships Apr 30, 2013 $9.999% (47%)100,000 .. 200,0000%00:00 (00:00)
144 XIII Century – Gold Edition Aug 28, 2009 $4.999% (46%)50,000 .. 100,0000%00:00 (00:00)
145 Arms Dealer Mar 26, 2015 $5.999% (46%)0 .. 20,0000%00:00 (00:00)
146 Master of Magic Chess May 23, 2017 FreeN/A (N/A)0 .. 20,0000%00:00 (00:00)
147 The Fleets of Sol Apr 1, 2016 $8.99N/A (N/A)0 .. 20,0000%00:00 (00:00)
148 Desperados 2: Cooper's Revenge May 2, 2006 $9.998% (44%/66%)50,000 .. 100,0000%00:00 (00:00)
149 Skyward Collapse May 23, 2013 $4.998% (43%/64%)100,000 .. 200,0000%00:00 (00:00)
150 Galactic Civilizations I: Ultimate Edition Aug 14, 2012 $9.998% (43%/83%)200,000 .. 500,0000%00:00 (00:00)
151 DUNGEONS - Steam Special Edition Feb 10, 2011 $9.998% (43%/65%)200,000 .. 500,0000%00:00 (00:00)
152 Shattered Union Oct 17, 2005 $4.997% (42%/67%)20,000 .. 50,0000%00:00 (00:00)
153 Mars 2030 Mar 11, 2016 $4.99N/A (N/A)0 .. 20,0000%00:00 (00:00)
154 Naval War: Arctic Circle Apr 10, 2012 $19.997% (42%/64%)50,000 .. 100,0002.44%00:01 (00:00)
155 Guardians of Graxia Nov 10, 2010 $4.997% (41%)50,000 .. 100,0000%00:00 (00:00)
156 Theatre of War 3: Korea Mar 24, 2011 $6.997% (41%/49%)20,000 .. 50,0000%00:00 (00:00)
157 Two Worlds II Castle Defense Jun 14, 2011 $9.996% (40%)200,000 .. 500,0001.15%05:02 (05:29)
158 Real Warfare 2: Northern Crusades Nov 18, 2011 $4.996% (40%)20,000 .. 50,0000%00:00 (00:00)
159 Ancient Space Sep 23, 2014 $19.996% (40%)20,000 .. 50,0000%00:00 (00:00)
160 Dungeons - The Dark Lord Sep 27, 2011 $19.996% (39%/72%)50,000 .. 100,0000.79%00:02 (00:00)
161 Cossacks II: Napoleonic Wars Apr 26, 2005 $4.996% (39%/73%)20,000 .. 50,0000%00:00 (00:00)
162 Fallen: A2P Protocol Aug 14, 2015 $9.995% (35%)20,000 .. 50,00012.5%02:48 (00:56)
163 Sacraboar Nov 6, 2009 $2.995% (35%)20,000 .. 50,0001.28%00:01 (00:00)
164 Arena Wars 2 Oct 12, 2012 $3.994% (32%)50,000 .. 100,0000%00:00 (00:00)
165 Disciples III - Resurrection Oct 11, 2011 $14.994% (32%/63%)100,000 .. 200,0000%00:00 (00:00)
166 US and THEM Mar 8, 2010 $2.994% (31%)20,000 .. 50,0000%00:00 (00:00)
167 The Game of Life Jun 10, 2013 $9.994% (31%)0 .. 20,0000%00:00 (00:00)
168 Feudalism Jun 14, 2016 $14.99N/A (N/A)0 .. 20,0000%00:00 (00:00)
169 Tiestru Aug 20, 2014 $9.99N/A (N/A)20,000 .. 50,0000%00:00 (00:00)
170 Genesis Rising Mar 20, 2007 $4.992% (23%/57%)20,000 .. 50,0000%00:00 (00:00)
171 APOX Jan 20, 2011 $14.992% (23%/48%)20,000 .. 50,0000%00:00 (00:00)
172 Perimeter 2: New Earth Feb 10, 2009 $14.99N/A (N/A/43%)0 .. 20,0000%00:00 (00:00)
173 Ironclads: American Civil War Jan 8, 2009 $9.99N/A (N/A)20,000 .. 50,0000%00:00 (00:00)
174 Tryst Sep 14, 2012 $14.99N/A (N/A/50%)0 .. 20,0000%00:00 (00:00)
175 Prison Tycoon 3: Lockdown Aug 1, 2007 $9.991% (15%)20,000 .. 50,0000%00:00 (00:00)
176 Citadels Jul 25, 2013 $14.991% (12%/20%)20,000 .. 50,0000%00:00 (00:00)

Owners of this game also own:

Access restricted.

This feature is only available to users with special access rights. Sorry.

If you want to proceed, you need to register or log in first and then back Steam Spy on Patreon. Look for Indie or Pro pledge.

Don't forget to use the same email as on Steam Spy!

Playtime distribution:

Access restricted.

This feature is only available to users with special access rights. Sorry.

If you want to proceed, you need to register or log in first and then back Steam Spy on Patreon. Look for Indie or Pro pledge.

Don't forget to use the same email as on Steam Spy!

Playtime (2 weeks):

Access restricted.

This feature is only available to users with special access rights. Sorry.

If you want to proceed, you need to register or log in first and then back Steam Spy on Patreon. Look for Indie or Pro pledge.

Don't forget to use the same email as on Steam Spy!

User reviews:

Login required.

Please register or log in to see this information.